Amalia — SXMT — position and weather

sailwx.info

Track history (hours):
 
Tides and Currents Weather Stations Pressure Air Temp Water Temp Dewpoint Dewpoint Depression Visibility Wind Speed Wind Dir Waves Ship Positions

Amalia

Last reported at 2014-Jun-16 17:03 UTC. Time now 2014-Jul-31 05:25 UTC.
Position S 34°48' E 018°45'.
Warning: this ship's position is 44 days out of date.

Length 225 m; draft 8.4 m.

Type: Cargo ship. MMSI: 239652000.

Date/timePositionNaut miles runAvg speedWind from/ knotsBaromVisibWave heightAir tempDewpointWater temp
2014-Jun-16 17:03S 34°48' E 018°45'610.7
2014-Jun-16 16:31S 34°49' E 018°52'1110.6
2014-Jun-16 15:31S 34°50' E 019°05'1310.2
2014-Jun-16 14:17S 34°52' E 019°20'810.3
2014-Jun-16 13:30S 34°53' E 019°30'1010.0
2014-Jun-16 12:30S 34°55' E 019°42'28 9.3
2014-Jun-16 09:26S 34°55' E 020°16'56 9.0
2014-Jun-16 03:12S 34°42' E 021°23'5 8.5
2014-Jun-16 02:33S 34°41' E 021°30'26 8.6
2014-Jun-15 23:32S 34°34' E 021°60'12 9.0
2014-Jun-15 22:10S 34°31' E 022°14'233 7.3
2014-Jun-14 14:16S 34°00' E 026°53'4014.5
2014-Jun-14 11:31S 33°44' E 027°37'19913.3
2014-Jun-13 20:33S 32°21' E 031°13'1212.4
2014-Jun-13 19:33S 32°16' E 031°26'1312.4
2014-Jun-13 18:33S 32°10' E 031°40'  
Track history (hours):
 
Tides and Currents Weather Stations Pressure Air Temp Water Temp Dewpoint Dewpoint Depression Visibility Wind Speed Wind Dir Waves Ship Positions

Amalia

Last reported at 2014-Jun-16 17:03 UTC. Time now 2014-Jul-31 05:25 UTC.
Position S 34°48' E 018°45'.
Warning: this ship's position is 44 days out of date.

Length 225 m; draft 8.4 m.

Type: Cargo ship. MMSI: 239652000.

Date/timePositionNaut miles runAvg speedWind from/ knotsBaromVisibWave heightAir tempDewpointWater temp
2014-Jun-16 17:03S 34°48' E 018°45'610.7
2014-Jun-16 16:31S 34°49' E 018°52'1110.6
2014-Jun-16 15:31S 34°50' E 019°05'1310.2
2014-Jun-16 14:17S 34°52' E 019°20'810.3
2014-Jun-16 13:30S 34°53' E 019°30'1010.0
2014-Jun-16 12:30S 34°55' E 019°42'28 9.3
2014-Jun-16 09:26S 34°55' E 020°16'56 9.0
2014-Jun-16 03:12S 34°42' E 021°23'5 8.5
2014-Jun-16 02:33S 34°41' E 021°30'26 8.6
2014-Jun-15 23:32S 34°34' E 021°60'12 9.0
2014-Jun-15 22:10S 34°31' E 022°14'233 7.3
2014-Jun-14 14:16S 34°00' E 026°53'4014.5
2014-Jun-14 11:31S 33°44' E 027°37'19913.3
2014-Jun-13 20:33S 32°21' E 031°13'1212.4
2014-Jun-13 19:33S 32°16' E 031°26'1312.4
2014-Jun-13 18:33S 32°10' E 031°40'  

Dump ship's entire track history